Rosier, Georgia
Current Conditions -  °F | °C
As of 7:15 PM on Sunday 23 Nov 2014 (Local Time) from KOKZ Reporting Station
Light Rain Light Rain  
Wind Chill: 64°   Ceiling: 9500
Heat Index: 64°   Visibility: 10mi
Dew Point: 62°   Wind: 10mph
Humidity: 93%   Direction: 220°SW
Pressure: 29.8"   Gusts: 18mph
Location:  33.028°N, 82.379°W
Report Text: KOKZ 240015Z AUTO 22009G16KT 180V250 10SM -RA SCT039 SCT060 BKN095 18/17 A2980 RMK AO2 LTG DSNT E THRU S T01770165
Loading
Personal Weather Stations






























Interactive Weather Map New forecast layout! Learn more

10-Day Weather Forecast

Advertisements
Track Severe Weather on mobile